sensor_id;sensor_type;location;lat;lon;timestamp;pressure;altitude;pressure_sealevel;temperature;humidity
62038;BME280;47991;42.974;12.082;2024-03-02T00:01:41;96912.35;;;7.93;96.66
62038;BME280;47991;42.974;12.082;2024-03-02T00:04:08;96911.18;;;7.85;97.65
62038;BME280;47991;42.974;12.082;2024-03-02T00:06:35;96916.96;;;7.80;97.66
62038;BME280;47991;42.974;12.082;2024-03-02T00:09:03;96919.54;;;7.82;97.11
62038;BME280;47991;42.974;12.082;2024-03-02T00:11:30;96917.52;;;7.79;98.76
62038;BME280;47991;42.974;12.082;2024-03-02T00:13:57;96918.35;;;7.75;98.51
62038;BME280;47991;42.974;12.082;2024-03-02T00:16:32;96920.63;;;7.76;97.74
62038;BME280;47991;42.974;12.082;2024-03-02T00:19:03;96922.94;;;7.75;97.86
62038;BME280;47991;42.974;12.082;2024-03-02T00:21:33;96922.56;;;7.70;99.41
62038;BME280;47991;42.974;12.082;2024-03-02T00:24:01;96923.91;;;7.66;98.73
62038;BME280;47991;42.974;12.082;2024-03-02T00:26:33;96926.02;;;7.66;98.62
62038;BME280;47991;42.974;12.082;2024-03-02T00:29:01;96925.60;;;7.62;99.20
62038;BME280;47991;42.974;12.082;2024-03-02T00:31:28;96924.31;;;7.58;99.43
62038;BME280;47991;42.974;12.082;2024-03-02T00:33:55;96921.31;;;7.58;99.25
62038;BME280;47991;42.974;12.082;2024-03-02T00:36:25;96929.63;;;7.63;98.77
62038;BME280;47991;42.974;12.082;2024-03-02T00:38:54;96928.48;;;7.66;98.44
62038;BME280;47991;42.974;12.082;2024-03-02T00:41:27;96929.98;;;7.69;98.72
62038;BME280;47991;42.974;12.082;2024-03-02T00:43:58;96928.88;;;7.71;98.53
62038;BME280;47991;42.974;12.082;2024-03-02T00:46:33;96930.86;;;7.69;99.48
62038;BME280;47991;42.974;12.082;2024-03-02T00:49:06;96931.02;;;7.64;100.00
62038;BME280;47991;42.974;12.082;2024-03-02T00:51:39;96929.25;;;7.64;99.90
62038;BME280;47991;42.974;12.082;2024-03-02T00:54:08;96934.92;;;7.62;99.79
62038;BME280;47991;42.974;12.082;2024-03-02T00:56:35;96934.61;;;7.61;99.80
62038;BME280;47991;42.974;12.082;2024-03-02T00:59:03;96934.60;;;7.57;100.00
62038;BME280;47991;42.974;12.082;2024-03-02T01:01:30;96938.23;;;7.58;99.97
62038;BME280;47991;42.974;12.082;2024-03-02T01:03:57;96937.36;;;7.57;99.92
62038;BME280;47991;42.974;12.082;2024-03-02T01:06:24;96934.39;;;7.51;100.00
62038;BME280;47991;42.974;12.082;2024-03-02T01:08:51;96934.88;;;7.52;100.00
62038;BME280;47991;42.974;12.082;2024-03-02T01:11:19;96934.14;;;7.53;100.00
62038;BME280;47991;42.974;12.082;2024-03-02T01:13:48;96934.61;;;7.55;100.00
62038;BME280;47991;42.974;12.082;2024-03-02T01:16:16;96934.23;;;7.57;100.00
62038;BME280;47991;42.974;12.082;2024-03-02T01:18:43;96934.61;;;7.56;99.99
62038;BME280;47991;42.974;12.082;2024-03-02T01:21:11;96941.87;;;7.48;100.00
62038;BME280;47991;42.974;12.082;2024-03-02T01:23:38;96937.80;;;7.48;100.00
62038;BME280;47991;42.974;12.082;2024-03-02T01:26:05;96938.31;;;7.49;100.00
62038;BME280;47991;42.974;12.082;2024-03-02T01:28:33;96936.27;;;7.47;100.00
62038;BME280;47991;42.974;12.082;2024-03-02T01:31:00;96939.02;;;7.49;100.00
62038;BME280;47991;42.974;12.082;2024-03-02T01:33:28;96931.86;;;7.47;100.00
62038;BME280;47991;42.974;12.082;2024-03-02T01:35:56;96927.57;;;7.50;100.00
62038;BME280;47991;42.974;12.082;2024-03-02T01:38:23;96924.60;;;7.54;100.00
62038;BME280;47991;42.974;12.082;2024-03-02T01:40:50;96927.25;;;7.55;100.00
62038;BME280;47991;42.974;12.082;2024-03-02T01:43:18;96927.51;;;7.45;100.00
62038;BME280;47991;42.974;12.082;2024-03-02T01:45:46;96928.98;;;7.43;100.00
62038;BME280;47991;42.974;12.082;2024-03-02T01:48:12;96930.67;;;7.46;100.00
62038;BME280;47991;42.974;12.082;2024-03-02T01:50:40;96928.25;;;7.50;100.00
62038;BME280;47991;42.974;12.082;2024-03-02T01:53:08;96935.09;;;7.45;100.00
62038;BME280;47991;42.974;12.082;2024-03-02T01:55:36;96936.66;;;7.39;100.00
62038;BME280;47991;42.974;12.082;2024-03-02T01:58:03;96930.81;;;7.41;100.00
62038;BME280;47991;42.974;12.082;2024-03-02T02:00:30;96935.31;;;7.43;100.00
62038;BME280;47991;42.974;12.082;2024-03-02T02:02:57;96935.45;;;7.44;100.00
62038;BME280;47991;42.974;12.082;2024-03-02T02:05:25;96934.40;;;7.44;100.00
62038;BME280;47991;42.974;12.082;2024-03-02T02:07:52;96932.94;;;7.47;100.00
62038;BME280;47991;42.974;12.082;2024-03-02T02:10:19;96929.84;;;7.51;100.00
62038;BME280;47991;42.974;12.082;2024-03-02T02:12:46;96933.39;;;7.49;100.00
62038;BME280;47991;42.974;12.082;2024-03-02T02:15:27;96929.29;;;7.51;100.00
62038;BME280;47991;42.974;12.082;2024-03-02T02:17:55;96928.74;;;7.52;100.00
62038;BME280;47991;42.974;12.082;2024-03-02T02:20:22;96927.07;;;7.55;100.00
62038;BME280;47991;42.974;12.082;2024-03-02T02:23:04;96921.20;;;7.57;100.00
62038;BME280;47991;42.974;12.082;2024-03-02T02:25:38;96922.91;;;7.58;100.00
62038;BME280;47991;42.974;12.082;2024-03-02T02:28:05;96922.36;;;7.59;100.00
62038;BME280;47991;42.974;12.082;2024-03-02T02:30:33;96917.89;;;7.62;100.00
62038;BME280;47991;42.974;12.082;2024-03-02T02:33:00;96918.45;;;7.60;100.00
62038;BME280;47991;42.974;12.082;2024-03-02T02:35:27;96914.20;;;7.62;100.00
62038;BME280;47991;42.974;12.082;2024-03-02T02:37:55;96911.71;;;7.62;100.00
62038;BME280;47991;42.974;12.082;2024-03-02T02:40:23;96906.08;;;7.62;100.00
62038;BME280;47991;42.974;12.082;2024-03-02T02:42:50;96902.30;;;7.54;100.00
62038;BME280;47991;42.974;12.082;2024-03-02T02:45:18;96904.52;;;7.50;100.00
62038;BME280;47991;42.974;12.082;2024-03-02T02:47:45;96903.35;;;7.47;100.00
62038;BME280;47991;42.974;12.082;2024-03-02T02:50:13;96901.39;;;7.48;100.00
62038;BME280;47991;42.974;12.082;2024-03-02T02:52:41;96904.23;;;7.48;100.00
62038;BME280;47991;42.974;12.082;2024-03-02T02:55:10;96902.77;;;7.50;100.00
62038;BME280;47991;42.974;12.082;2024-03-02T02:57:39;96902.39;;;7.51;100.00
62038;BME280;47991;42.974;12.082;2024-03-02T03:00:11;96899.45;;;7.49;100.00
62038;BME280;47991;42.974;12.082;2024-03-02T03:02:43;96899.89;;;7.52;100.00
62038;BME280;47991;42.974;12.082;2024-03-02T03:05:13;96896.98;;;7.55;100.00
62038;BME280;47991;42.974;12.082;2024-03-02T03:07:42;96899.88;;;7.58;100.00
62038;BME280;47991;42.974;12.082;2024-03-02T03:10:11;96898.67;;;7.57;100.00
62038;BME280;47991;42.974;12.082;2024-03-02T03:12:38;96898.61;;;7.54;100.00
62038;BME280;47991;42.974;12.082;2024-03-02T03:15:05;96897.01;;;7.54;100.00
62038;BME280;47991;42.974;12.082;2024-03-02T03:17:34;96897.34;;;7.55;100.00
62038;BME280;47991;42.974;12.082;2024-03-02T03:20:01;96898.46;;;7.53;100.00
62038;BME280;47991;42.974;12.082;2024-03-02T03:22:31;96898.39;;;7.55;100.00
62038;BME280;47991;42.974;12.082;2024-03-02T03:25:02;96898.54;;;7.56;100.00
62038;BME280;47991;42.974;12.082;2024-03-02T03:27:30;96896.95;;;7.50;100.00
62038;BME280;47991;42.974;12.082;2024-03-02T03:29:57;96897.86;;;7.43;100.00
62038;BME280;47991;42.974;12.082;2024-03-02T03:32:24;96903.02;;;7.47;100.00
62038;BME280;47991;42.974;12.082;2024-03-02T03:34:52;96901.31;;;7.52;100.00
62038;BME280;47991;42.974;12.082;2024-03-02T03:37:19;96903.15;;;7.54;100.00
62038;BME280;47991;42.974;12.082;2024-03-02T03:39:46;96904.99;;;7.52;100.00
62038;BME280;47991;42.974;12.082;2024-03-02T03:42:13;96907.80;;;7.52;100.00
62038;BME280;47991;42.974;12.082;2024-03-02T03:44:40;96911.63;;;7.53;100.00
62038;BME280;47991;42.974;12.082;2024-03-02T03:47:12;96913.38;;;7.54;100.00
62038;BME280;47991;42.974;12.082;2024-03-02T03:49:39;96912.85;;;7.54;100.00
62038;BME280;47991;42.974;12.082;2024-03-02T03:52:06;96912.52;;;7.53;100.00
62038;BME280;47991;42.974;12.082;2024-03-02T03:54:33;96916.86;;;7.55;100.00
62038;BME280;47991;42.974;12.082;2024-03-02T03:57:00;96919.13;;;7.55;100.00
62038;BME280;47991;42.974;12.082;2024-03-02T03:59:27;96917.35;;;7.57;100.00
62038;BME280;47991;42.974;12.082;2024-03-02T04:01:54;96918.05;;;7.56;100.00
62038;BME280;47991;42.974;12.082;2024-03-02T04:04:21;96917.15;;;7.57;100.00
62038;BME280;47991;42.974;12.082;2024-03-02T04:06:48;96916.58;;;7.59;100.00
62038;BME280;47991;42.974;12.082;2024-03-02T04:09:15;96923.89;;;7.60;100.00
62038;BME280;47991;42.974;12.082;2024-03-02T04:11:43;96924.02;;;7.62;100.00
62038;BME280;47991;42.974;12.082;2024-03-02T04:14:10;96923.80;;;7.58;100.00
62038;BME280;47991;42.974;12.082;2024-03-02T04:16:37;96924.96;;;7.60;100.00
62038;BME280;47991;42.974;12.082;2024-03-02T04:19:04;96927.70;;;7.63;100.00
62038;BME280;47991;42.974;12.082;2024-03-02T04:21:32;96930.64;;;7.64;100.00
62038;BME280;47991;42.974;12.082;2024-03-02T04:23:59;96934.48;;;7.66;100.00
62038;BME280;47991;42.974;12.082;2024-03-02T04:26:26;96929.36;;;7.66;100.00
62038;BME280;47991;42.974;12.082;2024-03-02T04:28:54;96934.02;;;7.68;100.00
62038;BME280;47991;42.974;12.082;2024-03-02T04:31:21;96935.55;;;7.71;100.00
62038;BME280;47991;42.974;12.082;2024-03-02T04:33:48;96938.61;;;7.74;100.00
62038;BME280;47991;42.974;12.082;2024-03-02T04:36:15;96944.92;;;7.69;100.00
62038;BME280;47991;42.974;12.082;2024-03-02T04:38:42;96944.70;;;7.59;100.00
62038;BME280;47991;42.974;12.082;2024-03-02T04:41:09;96941.42;;;7.57;100.00
62038;BME280;47991;42.974;12.082;2024-03-02T04:43:36;96945.29;;;7.45;100.00
62038;BME280;47991;42.974;12.082;2024-03-02T04:46:05;96941.38;;;7.41;100.00
62038;BME280;47991;42.974;12.082;2024-03-02T04:48:33;96944.94;;;7.45;100.00
62038;BME280;47991;42.974;12.082;2024-03-02T04:51:00;96947.00;;;7.47;100.00
62038;BME280;47991;42.974;12.082;2024-03-02T04:53:27;96947.31;;;7.48;100.00
62038;BME280;47991;42.974;12.082;2024-03-02T04:55:54;96942.23;;;7.47;100.00
62038;BME280;47991;42.974;12.082;2024-03-02T04:58:22;96945.41;;;7.41;100.00
62038;BME280;47991;42.974;12.082;2024-03-02T05:00:49;96946.59;;;7.43;100.00
62038;BME280;47991;42.974;12.082;2024-03-02T05:03:16;96948.82;;;7.44;100.00
62038;BME280;47991;42.974;12.082;2024-03-02T05:05:43;96950.13;;;7.47;100.00
62038;BME280;47991;42.974;12.082;2024-03-02T05:08:11;96949.86;;;7.51;100.00
62038;BME280;47991;42.974;12.082;2024-03-02T05:10:38;96949.05;;;7.55;100.00
62038;BME280;47991;42.974;12.082;2024-03-02T05:13:06;96949.96;;;7.59;100.00
62038;BME280;47991;42.974;12.082;2024-03-02T05:15:33;96952.16;;;7.63;100.00
62038;BME280;47991;42.974;12.082;2024-03-02T05:18:00;96956.55;;;7.63;100.00
62038;BME280;47991;42.974;12.082;2024-03-02T05:20:29;96959.33;;;7.64;100.00
62038;BME280;47991;42.974;12.082;2024-03-02T05:22:56;96960.74;;;7.64;100.00
62038;BME280;47991;42.974;12.082;2024-03-02T05:25:23;96964.94;;;7.65;100.00
62038;BME280;47991;42.974;12.082;2024-03-02T05:27:50;96970.02;;;7.65;100.00
62038;BME280;47991;42.974;12.082;2024-03-02T05:30:18;96972.00;;;7.63;100.00
62038;BME280;47991;42.974;12.082;2024-03-02T05:32:45;96972.54;;;7.63;100.00
62038;BME280;47991;42.974;12.082;2024-03-02T05:35:12;96975.30;;;7.65;100.00
62038;BME280;47991;42.974;12.082;2024-03-02T05:37:40;96973.15;;;7.67;100.00
62038;BME280;47991;42.974;12.082;2024-03-02T05:40:08;96973.67;;;7.67;100.00
62038;BME280;47991;42.974;12.082;2024-03-02T05:42:35;96978.13;;;7.65;100.00
62038;BME280;47991;42.974;12.082;2024-03-02T05:45:02;96977.52;;;7.62;100.00
62038;BME280;47991;42.974;12.082;2024-03-02T05:47:30;96976.16;;;7.60;100.00
62038;BME280;47991;42.974;12.082;2024-03-02T05:49:57;96977.06;;;7.59;100.00
62038;BME280;47991;42.974;12.082;2024-03-02T05:52:23;96979.80;;;7.62;100.00
62038;BME280;47991;42.974;12.082;2024-03-02T05:54:50;96981.39;;;7.62;100.00
62038;BME280;47991;42.974;12.082;2024-03-02T05:57:18;96984.11;;;7.65;100.00
62038;BME280;47991;42.974;12.082;2024-03-02T06:00:04;96986.61;;;7.69;100.00
62038;BME280;47991;42.974;12.082;2024-03-02T06:02:34;96995.21;;;7.71;100.00
62038;BME280;47991;42.974;12.082;2024-03-02T06:05:06;97006.63;;;7.71;100.00
62038;BME280;47991;42.974;12.082;2024-03-02T06:07:34;97008.30;;;7.74;100.00
62038;BME280;47991;42.974;12.082;2024-03-02T06:10:02;97015.50;;;7.74;100.00
62038;BME280;47991;42.974;12.082;2024-03-02T06:12:31;97019.39;;;7.74;100.00
62038;BME280;47991;42.974;12.082;2024-03-02T06:14:59;97023.73;;;7.76;100.00
62038;BME280;47991;42.974;12.082;2024-03-02T06:17:26;97028.32;;;7.76;100.00
62038;BME280;47991;42.974;12.082;2024-03-02T06:19:53;97033.79;;;7.75;100.00
62038;BME280;47991;42.974;12.082;2024-03-02T06:22:20;97036.97;;;7.74;100.00
62038;BME280;47991;42.974;12.082;2024-03-02T06:24:49;97042.21;;;7.76;100.00
62038;BME280;47991;42.974;12.082;2024-03-02T06:27:16;97041.70;;;7.75;100.00
62038;BME280;47991;42.974;12.082;2024-03-02T06:29:44;97042.23;;;7.75;100.00
62038;BME280;47991;42.974;12.082;2024-03-02T06:32:11;97044.09;;;7.78;100.00
62038;BME280;47991;42.974;12.082;2024-03-02T06:34:38;97044.83;;;7.76;100.00
62038;BME280;47991;42.974;12.082;2024-03-02T06:37:06;97048.85;;;7.77;100.00
62038;BME280;47991;42.974;12.082;2024-03-02T06:39:33;97050.92;;;7.78;100.00
62038;BME280;47991;42.974;12.082;2024-03-02T06:42:01;97053.48;;;7.81;100.00
62038;BME280;47991;42.974;12.082;2024-03-02T06:44:29;97053.45;;;7.82;100.00
62038;BME280;47991;42.974;12.082;2024-03-02T06:46:56;97053.47;;;7.82;100.00
62038;BME280;47991;42.974;12.082;2024-03-02T06:49:25;97049.53;;;7.84;100.00
62038;BME280;47991;42.974;12.082;2024-03-02T06:51:53;97056.83;;;7.87;100.00
62038;BME280;47991;42.974;12.082;2024-03-02T06:54:20;97061.20;;;7.88;100.00
62038;BME280;47991;42.974;12.082;2024-03-02T06:56:48;97064.48;;;7.90;100.00
62038;BME280;47991;42.974;12.082;2024-03-02T06:59:15;97071.79;;;7.94;100.00
62038;BME280;47991;42.974;12.082;2024-03-02T07:01:42;97072.23;;;7.97;100.00
62038;BME280;47991;42.974;12.082;2024-03-02T07:04:11;97081.54;;;7.97;100.00
62038;BME280;47991;42.974;12.082;2024-03-02T07:06:38;97084.00;;;7.97;100.00
62038;BME280;47991;42.974;12.082;2024-03-02T07:09:05;97086.59;;;7.99;100.00
62038;BME280;47991;42.974;12.082;2024-03-02T07:11:33;97088.64;;;8.01;100.00
62038;BME280;47991;42.974;12.082;2024-03-02T07:14:01;97092.88;;;8.01;100.00
62038;BME280;47991;42.974;12.082;2024-03-02T07:16:28;97100.38;;;8.03;100.00
62038;BME280;47991;42.974;12.082;2024-03-02T07:19:00;97106.13;;;8.05;100.00
62038;BME280;47991;42.974;12.082;2024-03-02T07:21:28;97109.85;;;8.04;100.00
62038;BME280;47991;42.974;12.082;2024-03-02T07:23:55;97115.56;;;8.08;100.00
62038;BME280;47991;42.974;12.082;2024-03-02T07:26:22;97119.70;;;8.11;100.00
62038;BME280;47991;42.974;12.082;2024-03-02T07:28:50;97123.30;;;8.14;100.00
62038;BME280;47991;42.974;12.082;2024-03-02T07:31:17;97126.54;;;8.18;100.00
62038;BME280;47991;42.974;12.082;2024-03-02T07:33:45;97128.92;;;8.20;100.00
62038;BME280;47991;42.974;12.082;2024-03-02T07:36:15;97130.23;;;8.24;100.00
62038;BME280;47991;42.974;12.082;2024-03-02T07:38:43;97125.91;;;8.27;100.00
62038;BME280;47991;42.974;12.082;2024-03-02T07:41:12;97123.54;;;8.30;100.00
62038;BME280;47991;42.974;12.082;2024-03-02T07:43:39;97124.30;;;8.34;100.00
62038;BME280;47991;42.974;12.082;2024-03-02T07:46:06;97127.80;;;8.41;100.00
62038;BME280;47991;42.974;12.082;2024-03-02T07:48:34;97132.18;;;8.49;100.00
62038;BME280;47991;42.974;12.082;2024-03-02T07:51:01;97133.08;;;8.54;100.00
62038;BME280;47991;42.974;12.082;2024-03-02T07:53:29;97131.14;;;8.59;100.00
62038;BME280;47991;42.974;12.082;2024-03-02T07:55:57;97134.77;;;8.68;100.00
62038;BME280;47991;42.974;12.082;2024-03-02T07:58:29;97136.99;;;8.75;100.00
62038;BME280;47991;42.974;12.082;2024-03-02T08:00:58;97141.25;;;8.80;100.00
62038;BME280;47991;42.974;12.082;2024-03-02T08:03:28;97138.56;;;8.87;100.00
62038;BME280;47991;42.974;12.082;2024-03-02T08:05:55;97143.56;;;8.96;100.00
62038;BME280;47991;42.974;12.082;2024-03-02T08:08:23;97143.45;;;9.06;100.00
62038;BME280;47991;42.974;12.082;2024-03-02T08:10:50;97142.00;;;9.17;100.00
62038;BME280;47991;42.974;12.082;2024-03-02T08:13:17;97145.08;;;9.31;100.00
62038;BME280;47991;42.974;12.082;2024-03-02T08:15:44;97147.51;;;9.48;100.00
62038;BME280;47991;42.974;12.082;2024-03-02T08:18:11;97150.64;;;9.65;100.00
62038;BME280;47991;42.974;12.082;2024-03-02T08:20:38;97152.94;;;9.80;100.00
62038;BME280;47991;42.974;12.082;2024-03-02T08:23:05;97156.77;;;9.87;100.00
62038;BME280;47991;42.974;12.082;2024-03-02T08:25:32;97158.12;;;9.94;100.00
62038;BME280;47991;42.974;12.082;2024-03-02T08:28:00;97157.39;;;10.04;100.00
62038;BME280;47991;42.974;12.082;2024-03-02T08:30:27;97163.40;;;10.13;100.00
62038;BME280;47991;42.974;12.082;2024-03-02T08:32:54;97167.77;;;10.20;100.00
62038;BME280;47991;42.974;12.082;2024-03-02T08:35:21;97170.34;;;10.22;100.00
62038;BME280;47991;42.974;12.082;2024-03-02T08:37:49;97171.52;;;10.23;100.00
62038;BME280;47991;42.974;12.082;2024-03-02T08:40:17;97174.93;;;10.17;100.00
62038;BME280;47991;42.974;12.082;2024-03-02T08:42:44;97176.85;;;10.17;100.00
62038;BME280;47991;42.974;12.082;2024-03-02T08:45:12;97176.26;;;10.20;100.00
62038;BME280;47991;42.974;12.082;2024-03-02T08:47:40;97181.30;;;10.21;100.00
62038;BME280;47991;42.974;12.082;2024-03-02T08:50:08;97187.85;;;10.26;100.00
62038;BME280;47991;42.974;12.082;2024-03-02T08:52:35;97184.42;;;10.34;100.00
62038;BME280;47991;42.974;12.082;2024-03-02T08:55:03;97189.43;;;10.42;100.00
62038;BME280;47991;42.974;12.082;2024-03-02T08:57:31;97186.50;;;10.50;100.00
62038;BME280;47991;42.974;12.082;2024-03-02T08:59:59;97191.60;;;10.59;100.00
62038;BME280;47991;42.974;12.082;2024-03-02T09:02:27;97192.66;;;10.69;100.00
62038;BME280;47991;42.974;12.082;2024-03-02T09:04:54;97192.14;;;10.78;100.00
62038;BME280;47991;42.974;12.082;2024-03-02T09:07:22;97191.83;;;10.91;100.00
62038;BME280;47991;42.974;12.082;2024-03-02T09:09:49;97193.38;;;11.01;100.00
62038;BME280;47991;42.974;12.082;2024-03-02T09:12:17;97194.40;;;11.15;99.88
62038;BME280;47991;42.974;12.082;2024-03-02T09:14:45;97194.92;;;11.29;99.05
62038;BME280;47991;42.974;12.082;2024-03-02T09:17:13;97199.99;;;11.39;98.85
62038;BME280;47991;42.974;12.082;2024-03-02T09:19:41;97198.24;;;11.51;98.92
62038;BME280;47991;42.974;12.082;2024-03-02T09:22:08;97204.55;;;11.62;99.21
62038;BME280;47991;42.974;12.082;2024-03-02T09:24:36;97202.26;;;11.70;98.27
62038;BME280;47991;42.974;12.082;2024-03-02T09:27:04;97204.22;;;11.74;97.37
62038;BME280;47991;42.974;12.082;2024-03-02T09:29:33;97204.61;;;11.77;96.79
62038;BME280;47991;42.974;12.082;2024-03-02T09:32:00;97206.91;;;11.82;96.33
62038;BME280;47991;42.974;12.082;2024-03-02T09:34:27;97207.02;;;11.88;96.54
62038;BME280;47991;42.974;12.082;2024-03-02T09:36:55;97211.02;;;11.68;94.11
62038;BME280;47991;42.974;12.082;2024-03-02T09:39:22;97213.02;;;11.75;95.74
62038;BME280;47991;42.974;12.082;2024-03-02T09:41:49;97215.23;;;11.73;93.84
62038;BME280;47991;42.974;12.082;2024-03-02T09:44:17;97220.75;;;11.68;93.58
62038;BME280;47991;42.974;12.082;2024-03-02T09:46:44;97224.56;;;11.66;94.33
62038;BME280;47991;42.974;12.082;2024-03-02T09:49:15;97229.52;;;11.70;94.72
62038;BME280;47991;42.974;12.082;2024-03-02T09:51:48;97230.85;;;11.81;96.31
62038;BME280;47991;42.974;12.082;2024-03-02T09:54:16;97226.40;;;11.86;94.97
62038;BME280;47991;42.974;12.082;2024-03-02T09:56:44;97228.70;;;11.91;94.76
62038;BME280;47991;42.974;12.082;2024-03-02T09:59:12;97226.23;;;11.85;92.97
62038;BME280;47991;42.974;12.082;2024-03-02T10:02:02;97228.76;;;11.89;93.58
62038;BME280;47991;42.974;12.082;2024-03-02T10:04:30;97226.70;;;11.91;92.21
62038;BME280;47991;42.974;12.082;2024-03-02T10:07:16;97232.73;;;11.87;90.33
62038;BME280;47991;42.974;12.082;2024-03-02T10:09:48;97235.27;;;11.95;91.12
62038;BME280;47991;42.974;12.082;2024-03-02T10:12:17;97237.86;;;12.04;90.42
62038;BME280;47991;42.974;12.082;2024-03-02T10:14:45;97234.73;;;12.15;90.15
62038;BME280;47991;42.974;12.082;2024-03-02T10:17:13;97233.96;;;12.33;90.59
62038;BME280;47991;42.974;12.082;2024-03-02T10:19:42;97233.25;;;12.49;87.97
62038;BME280;47991;42.974;12.082;2024-03-02T10:22:10;97236.99;;;12.65;87.61
62038;BME280;47991;42.974;12.082;2024-03-02T10:24:41;97239.11;;;12.65;84.55
62038;BME280;47991;42.974;12.082;2024-03-02T10:27:10;97234.92;;;12.67;82.57
62038;BME280;47991;42.974;12.082;2024-03-02T10:29:42;97237.80;;;12.70;83.35
62038;BME280;47991;42.974;12.082;2024-03-02T10:32:10;97240.40;;;12.76;83.28
62038;BME280;47991;42.974;12.082;2024-03-02T10:34:41;97237.11;;;12.82;83.72
62038;BME280;47991;42.974;12.082;2024-03-02T10:37:10;97240.44;;;12.83;83.60
62038;BME280;47991;42.974;12.082;2024-03-02T10:39:39;97237.08;;;12.75;80.58
62038;BME280;47991;42.974;12.082;2024-03-02T10:42:07;97241.97;;;12.72;83.03
62038;BME280;47991;42.974;12.082;2024-03-02T10:44:34;97240.38;;;12.68;82.59
62038;BME280;47991;42.974;12.082;2024-03-02T10:47:04;97241.89;;;12.59;80.99
62038;BME280;47991;42.974;12.082;2024-03-02T10:49:32;97243.19;;;12.57;79.20
62038;BME280;47991;42.974;12.082;2024-03-02T10:52:00;97247.90;;;12.55;79.80
62038;BME280;47991;42.974;12.082;2024-03-02T10:54:28;97242.91;;;12.55;79.91
62038;BME280;47991;42.974;12.082;2024-03-02T10:57:03;97243.50;;;12.50;78.28
62038;BME280;47991;42.974;12.082;2024-03-02T10:59:48;97245.50;;;12.53;79.05
62038;BME280;47991;42.974;12.082;2024-03-02T11:02:21;97242.44;;;12.58;80.70
62038;BME280;47991;42.974;12.082;2024-03-02T11:04:54;97243.82;;;12.59;81.18
62038;BME280;47991;42.974;12.082;2024-03-02T11:07:22;97241.66;;;12.55;79.54
62038;BME280;47991;42.974;12.082;2024-03-02T11:09:55;97242.14;;;12.57;79.29
62038;BME280;47991;42.974;12.082;2024-03-02T11:12:36;97235.60;;;12.60;80.41
62038;BME280;47991;42.974;12.082;2024-03-02T11:15:09;97234.16;;;12.61;81.53
62038;BME280;47991;42.974;12.082;2024-03-02T11:17:39;97233.08;;;12.53;78.64
62038;BME280;47991;42.974;12.082;2024-03-02T11:20:07;97231.90;;;12.56;79.06
62038;BME280;47991;42.974;12.082;2024-03-02T11:22:36;97229.02;;;12.64;79.48
62038;BME280;47991;42.974;12.082;2024-03-02T11:25:04;97220.91;;;12.71;76.83
62038;BME280;47991;42.974;12.082;2024-03-02T11:33:01;97213.96;;;12.91;78.28
62038;BME280;47991;42.974;12.082;2024-03-02T11:35:41;97209.02;;;13.02;77.43
62038;BME280;47991;42.974;12.082;2024-03-02T11:38:15;97200.94;;;13.12;75.29
62038;BME280;47991;42.974;12.082;2024-03-02T11:40:42;97202.25;;;13.25;76.12
62038;BME280;47991;42.974;12.082;2024-03-02T11:43:10;97203.61;;;13.38;75.78
62038;BME280;47991;42.974;12.082;2024-03-02T11:45:38;97203.39;;;13.53;75.45
62038;BME280;47991;42.974;12.082;2024-03-02T11:48:15;97192.78;;;13.88;75.70
62038;BME280;47991;42.974;12.082;2024-03-02T11:50:46;97186.40;;;14.19;74.39
62038;BME280;47991;42.974;12.082;2024-03-02T11:53:16;97181.58;;;14.47;74.73
62038;BME280;47991;42.974;12.082;2024-03-02T11:55:44;97180.49;;;14.60;71.10
62038;BME280;47991;42.974;12.082;2024-03-02T11:58:14;97177.66;;;14.74;71.69
62038;BME280;47991;42.974;12.082;2024-03-02T12:00:41;97173.75;;;14.93;69.69
62038;BME280;47991;42.974;12.082;2024-03-02T12:03:10;97173.04;;;14.86;68.96
62038;BME280;47991;42.974;12.082;2024-03-02T12:05:38;97172.42;;;14.62;67.06
62038;BME280;47991;42.974;12.082;2024-03-02T12:08:07;97173.62;;;14.39;67.96
62038;BME280;47991;42.974;12.082;2024-03-02T12:10:35;97176.31;;;14.35;70.20
62038;BME280;47991;42.974;12.082;2024-03-02T12:13:05;97168.66;;;14.35;69.57
62038;BME280;47991;42.974;12.082;2024-03-02T12:15:39;97172.52;;;14.23;68.51
62038;BME280;47991;42.974;12.082;2024-03-02T12:18:07;97171.95;;;14.13;68.41
62038;BME280;47991;42.974;12.082;2024-03-02T12:20:34;97174.06;;;14.03;68.62
62038;BME280;47991;42.974;12.082;2024-03-02T12:23:02;97173.39;;;13.89;68.07
62038;BME280;47991;42.974;12.082;2024-03-02T12:25:32;97169.30;;;13.96;69.16
62038;BME280;47991;42.974;12.082;2024-03-02T12:28:03;97166.08;;;14.06;69.35
62038;BME280;47991;42.974;12.082;2024-03-02T12:30:31;97162.19;;;14.37;67.51
62038;BME280;47991;42.974;12.082;2024-03-02T12:33:00;97155.34;;;14.62;63.10
62038;BME280;47991;42.974;12.082;2024-03-02T12:35:27;97157.96;;;14.98;65.57
62038;BME280;47991;42.974;12.082;2024-03-02T12:37:54;97158.06;;;15.28;63.18
62038;BME280;47991;42.974;12.082;2024-03-02T12:40:22;97154.14;;;15.56;64.83
62038;BME280;47991;42.974;12.082;2024-03-02T12:42:50;97152.75;;;15.40;61.22
62038;BME280;47991;42.974;12.082;2024-03-02T12:45:17;97150.97;;;15.28;59.65
62038;BME280;47991;42.974;12.082;2024-03-02T12:47:51;97148.44;;;15.35;59.85
62038;BME280;47991;42.974;12.082;2024-03-02T12:50:18;97153.71;;;15.51;61.49
62038;BME280;47991;42.974;12.082;2024-03-02T12:52:53;97151.74;;;15.70;60.11
62038;BME280;47991;42.974;12.082;2024-03-02T12:55:21;97147.91;;;15.90;59.39
62038;BME280;47991;42.974;12.082;2024-03-02T12:57:52;97140.84;;;16.33;60.64
62038;BME280;47991;42.974;12.082;2024-03-02T13:00:20;97141.81;;;16.11;58.31
62038;BME280;47991;42.974;12.082;2024-03-02T13:02:48;97139.41;;;16.28;58.05